createdAt,value
2018-12-01T00:00:59.997Z,96502.11
2018-12-01T00:03:29.183Z,96503.16
2018-12-01T00:05:58.560Z,96496.38
2018-12-01T00:08:29.582Z,96499.41
2018-12-01T00:10:59.135Z,96504.75
2018-12-01T00:13:27.977Z,96505.64
2018-12-01T00:15:57.330Z,96501.73
2018-12-01T00:18:27.846Z,96495.37
2018-12-01T00:20:57.123Z,96492.14
2018-12-01T00:23:26.001Z,96501.77
2018-12-01T00:25:54.572Z,96500.55
2018-12-01T00:28:25.085Z,96495.42
2018-12-01T00:30:55.689Z,96495.80
2018-12-01T00:33:25.218Z,96493.34
2018-12-01T00:35:53.851Z,96489.06
2018-12-01T00:38:23.455Z,96490.67
2018-12-01T00:40:52.963Z,96498.52
2018-12-01T00:43:22.170Z,96498.47
2018-12-01T00:45:51.670Z,96499.73
2018-12-01T00:48:22.203Z,96498.17
2018-12-01T00:50:51.804Z,96502.61
2018-12-01T00:53:23.343Z,96497.31
2018-12-01T00:55:53.786Z,96511.59
2018-12-01T00:58:24.483Z,96510.06
2018-12-01T01:00:53.850Z,96506.17
2018-12-01T01:03:23.659Z,96507.59
2018-12-01T01:05:53.313Z,96517.22
2018-12-01T01:08:23.051Z,96514.70
2018-12-01T01:10:53.479Z,96510.69
2018-12-01T01:13:24.013Z,96518.17
2018-12-01T01:15:53.486Z,96519.10
2018-12-01T01:18:22.324Z,96518.44
2018-12-01T01:20:51.142Z,96521.62
2018-12-01T01:23:22.499Z,96528.38
2018-12-01T01:25:52.698Z,96524.50
2018-12-01T01:28:22.058Z,96529.58
2018-12-01T01:30:52.878Z,96527.75
2018-12-01T01:33:30.031Z,96535.89
2018-12-01T01:35:59.766Z,96531.41
2018-12-01T01:38:35.938Z,96530.36
2018-12-01T01:41:07.106Z,96534.01
2018-12-01T01:43:37.198Z,96538.00
2018-12-01T01:46:08.237Z,96543.15
2018-12-01T01:48:38.268Z,96546.19
2018-12-01T01:51:07.791Z,96541.47
2018-12-01T01:53:38.217Z,96536.77
2018-12-01T01:56:08.437Z,96533.17
2018-12-01T01:58:38.560Z,96531.79
2018-12-01T02:01:08.626Z,96536.46
2018-12-01T02:03:38.459Z,96536.41
2018-12-01T02:06:08.546Z,96544.13
2018-12-01T02:08:38.306Z,96535.70
2018-12-01T02:11:07.933Z,96535.39
2018-12-01T02:13:37.645Z,96538.69
2018-12-01T02:16:07.722Z,96535.87
2018-12-01T02:18:39.216Z,96532.42
2018-12-01T02:21:09.883Z,96536.90
2018-12-01T02:23:40.182Z,96532.97
2018-12-01T02:26:10.917Z,96537.09
2018-12-01T02:28:41.602Z,96533.83
2018-12-01T02:31:12.795Z,96535.66
2018-12-01T02:33:43.340Z,96536.59
2018-12-01T02:36:14.267Z,96536.72
2018-12-01T02:38:43.813Z,96542.04
2018-12-01T02:41:12.882Z,96544.23
2018-12-01T02:43:42.460Z,96540.19
2018-12-01T02:46:22.420Z,96547.31
2018-12-01T02:48:53.150Z,96540.80
2018-12-01T02:51:22.264Z,96531.67
2018-12-01T02:53:51.803Z,96532.63
2018-12-01T02:56:21.066Z,96536.06
2018-12-01T02:58:49.972Z,96532.33
2018-12-01T03:01:21.578Z,96532.95
2018-12-01T03:03:50.898Z,96525.92
2018-12-01T03:06:20.986Z,96536.27
2018-12-01T03:08:50.128Z,96526.27
2018-12-01T03:11:22.806Z,96543.30
2018-12-01T03:13:54.128Z,96545.58
2018-12-01T03:16:25.604Z,96537.09
2018-12-01T03:18:54.454Z,96537.81
2018-12-01T03:21:23.837Z,96537.62
2018-12-01T03:23:53.441Z,96535.05
2018-12-01T03:26:22.558Z,96542.70
2018-12-01T03:28:52.622Z,96539.66
2018-12-01T03:31:22.169Z,96550.63
2018-12-01T03:33:52.144Z,96543.16
2018-12-01T03:36:20.828Z,96551.70
2018-12-01T03:38:50.298Z,96549.71
2018-12-01T03:41:19.899Z,96538.25
2018-12-01T03:43:50.877Z,96540.36
2018-12-01T03:46:20.329Z,96546.29
2018-12-01T03:48:49.982Z,96540.54
2018-12-01T03:51:20.118Z,96542.59
2018-12-01T03:53:48.699Z,96537.12
2018-12-01T03:56:18.142Z,96532.63
2018-12-01T03:58:50.280Z,96530.98
2018-12-01T04:01:21.269Z,96532.12
2018-12-01T04:03:52.425Z,96533.55
2018-12-01T04:06:22.641Z,96538.41
2018-12-01T04:08:52.442Z,96541.98
2018-12-01T04:11:24.101Z,96543.30
2018-12-01T04:13:54.598Z,96540.82
2018-12-01T04:16:25.843Z,96546.61
2018-12-01T04:18:54.723Z,96549.67
2018-12-01T04:21:28.371Z,96548.19
2018-12-01T04:23:58.181Z,96546.16
2018-12-01T04:26:28.906Z,96548.86
2018-12-01T04:28:59.964Z,96554.48
2018-12-01T04:31:30.642Z,96549.27
2018-12-01T04:34:00.235Z,96556.33
2018-12-01T04:36:29.314Z,96551.50
2018-12-01T04:38:59.218Z,96548.30
2018-12-01T04:41:30.467Z,96548.39
2018-12-01T04:43:59.937Z,96544.94
2018-12-01T04:46:30.042Z,96541.23
2018-12-01T04:49:00.686Z,96542.98
2018-12-01T04:51:32.075Z,96550.50
2018-12-01T04:54:03.079Z,96549.71
2018-12-01T04:56:32.674Z,96552.48
2018-12-01T04:59:02.926Z,96554.34
2018-12-01T05:01:31.723Z,96556.43
2018-12-01T05:04:01.452Z,96556.64
2018-12-01T05:06:31.064Z,96560.34
2018-12-01T05:09:00.219Z,96560.45
2018-12-01T05:11:45.118Z,96558.77
2018-12-01T05:14:15.091Z,96561.41
2018-12-01T05:16:45.939Z,96567.30
2018-12-01T05:19:17.128Z,96563.59
2018-12-01T05:21:45.805Z,96563.92
2018-12-01T05:24:15.781Z,96565.98
2018-12-01T05:26:45.590Z,96563.77
2018-12-01T05:29:15.060Z,96562.39
2018-12-01T05:31:45.059Z,96567.73
2018-12-01T05:34:15.480Z,96565.34
2018-12-01T05:36:44.628Z,96571.24
2018-12-01T05:39:14.457Z,96574.73
2018-12-01T05:41:43.949Z,96580.71
2018-12-01T05:44:14.067Z,96584.75
2018-12-01T05:46:45.665Z,96584.12
2018-12-01T05:49:14.571Z,96585.52
2018-12-01T05:51:49.605Z,96578.13
2018-12-01T05:54:21.064Z,96575.48
2018-12-01T05:56:50.911Z,96579.35
2018-12-01T05:59:20.418Z,96572.67
2018-12-01T06:01:49.479Z,96577.25
2018-12-01T06:04:19.230Z,96587.61
2018-12-01T06:06:49.807Z,96581.39
2018-12-01T06:09:18.545Z,96582.52
2018-12-01T06:11:48.544Z,96586.11
2018-12-01T06:14:19.581Z,96596.72
2018-12-01T06:16:49.356Z,96601.78
2018-12-01T06:19:20.286Z,96606.09
2018-12-01T06:21:51.999Z,96611.94
2018-12-01T06:24:21.885Z,96618.92
2018-12-01T06:26:50.822Z,96615.03
2018-12-01T06:29:20.706Z,96617.97
2018-12-01T06:31:49.999Z,96619.61
2018-12-01T06:34:19.017Z,96620.91
2018-12-01T06:36:51.054Z,96619.30
2018-12-01T06:39:20.682Z,96616.96
2018-12-01T06:41:49.288Z,96613.20
2018-12-01T06:44:20.292Z,96615.97
2018-12-01T06:46:51.025Z,96617.59
2018-12-01T06:49:21.389Z,96617.83
2018-12-01T06:51:51.735Z,96618.83
2018-12-01T06:54:20.708Z,96630.33
2018-12-01T06:56:49.733Z,96626.77
2018-12-01T06:59:22.074Z,96647.55
2018-12-01T07:01:51.211Z,96652.23
2018-12-01T07:04:20.781Z,96655.37
2018-12-01T07:06:51.212Z,96657.45
2018-12-01T07:09:22.202Z,96655.63
2018-12-01T07:11:52.518Z,96653.24
2018-12-01T07:14:21.966Z,96646.77
2018-12-01T07:16:51.288Z,96647.95
2018-12-01T07:19:21.379Z,96651.70
2018-12-01T07:21:51.361Z,96642.48
2018-12-01T07:24:21.206Z,96640.27
2018-12-01T07:26:53.203Z,96631.96
2018-12-01T07:29:23.366Z,96630.00
2018-12-01T07:31:53.229Z,96633.48
2018-12-01T07:34:23.115Z,96630.77
2018-12-01T07:36:54.067Z,96631.05
2018-12-01T07:39:23.622Z,96636.41
2018-12-01T07:42:07.741Z,96560.94
2018-12-01T07:44:37.251Z,96644.93
2018-12-01T07:47:06.370Z,96646.50
2018-12-01T07:49:36.377Z,96655.20
2018-12-01T07:52:06.049Z,96659.66
2018-12-01T07:54:35.238Z,96657.69
2018-12-01T07:57:04.980Z,96658.27
2018-12-01T07:59:35.108Z,96653.34
2018-12-01T08:02:05.336Z,96646.79
2018-12-01T08:04:35.791Z,96654.11
2018-12-01T08:07:05.239Z,96649.85
2018-12-01T08:09:35.523Z,96649.98
2018-12-01T08:12:05.517Z,96647.75
2018-12-01T08:14:35.363Z,96647.61
2018-12-01T08:17:04.550Z,96648.01
2018-12-01T08:19:35.178Z,96646.81
2018-12-01T08:22:10.266Z,96644.98
2018-12-01T08:24:40.212Z,96641.05
2018-12-01T08:27:09.327Z,96634.23
2018-12-01T08:29:40.471Z,96632.86
2018-12-01T08:32:12.926Z,96638.72
2018-12-01T08:34:41.471Z,96631.61
2018-12-01T08:37:10.680Z,96638.75
2018-12-01T08:39:40.642Z,96638.88
2018-12-01T08:42:10.346Z,96627.61
2018-12-01T08:44:47.211Z,96628.38
2018-12-01T08:47:18.835Z,96546.56
2018-12-01T08:49:48.550Z,96629.44
2018-12-01T08:52:20.194Z,96629.84
2018-12-01T08:54:50.910Z,96633.13
2018-12-01T08:57:20.765Z,96629.55
2018-12-01T08:59:50.073Z,96617.83
2018-12-01T09:02:19.550Z,96628.00
2018-12-01T09:04:50.547Z,96623.27
2018-12-01T09:07:19.772Z,96621.97
2018-12-01T09:09:49.499Z,96627.56
2018-12-01T09:12:20.078Z,96628.88
2018-12-01T09:14:50.875Z,96623.69
2018-12-01T09:17:20.574Z,96626.08
2018-12-01T09:19:51.252Z,96623.00
2018-12-01T09:22:21.614Z,96627.15
2018-12-01T09:24:51.296Z,96624.92
2018-12-01T09:27:22.509Z,96621.39
2018-12-01T09:29:51.192Z,96621.66
2018-12-01T09:32:21.980Z,96621.52
2018-12-01T09:34:51.586Z,96620.39
2018-12-01T09:37:22.152Z,96618.84
2018-12-01T09:39:51.651Z,96614.84
2018-12-01T09:42:24.890Z,96196.20
2018-12-01T09:44:52.799Z,96613.22
2018-12-01T09:47:25.610Z,96613.77
2018-12-01T09:49:55.021Z,96617.09
2018-12-01T09:52:25.545Z,96616.03
2018-12-01T09:54:54.847Z,96622.27
2018-12-01T09:57:26.487Z,96620.91
2018-12-01T09:59:55.562Z,96619.19
2018-12-01T10:02:25.554Z,96616.05
2018-12-01T10:04:54.602Z,96616.11
2018-12-01T10:07:23.146Z,96610.62
2018-12-01T10:09:52.476Z,96607.62
2018-12-01T10:12:22.865Z,96604.54
2018-12-01T10:14:52.795Z,96603.75
2018-12-01T10:17:23.427Z,96605.29
2018-12-01T10:19:55.910Z,96606.71
2018-12-01T10:22:25.988Z,96611.05
2018-12-01T10:24:57.603Z,96607.95
2018-12-01T10:27:26.226Z,96605.24
2018-12-01T10:29:56.658Z,96596.33
2018-12-01T10:32:25.410Z,96586.72
2018-12-01T10:34:58.456Z,96594.66
2018-12-01T10:37:28.154Z,96587.88
2018-12-01T10:39:57.659Z,96587.57
2018-12-01T10:42:27.508Z,96585.43
2018-12-01T10:44:56.378Z,96589.49
2018-12-01T10:47:26.166Z,96594.66
2018-12-01T10:49:55.314Z,96597.02
2018-12-01T10:52:26.583Z,96595.41
2018-12-01T10:54:57.907Z,96598.98
2018-12-01T10:57:26.957Z,96596.69
2018-12-01T10:59:56.399Z,96593.91
2018-12-01T11:02:32.543Z,96588.11
2018-12-01T11:05:02.091Z,96582.88
2018-12-01T11:07:31.298Z,96577.73
2018-12-01T11:10:00.994Z,96570.71
2018-12-01T11:12:31.791Z,96565.59
2018-12-01T11:15:02.059Z,96562.80
2018-12-01T11:17:33.047Z,96565.27
2018-12-01T11:20:03.159Z,96560.86
2018-12-01T11:22:33.466Z,96554.78
2018-12-01T11:25:02.563Z,96553.72
2018-12-01T11:27:32.678Z,96545.27
2018-12-01T11:30:02.803Z,96542.17
2018-12-01T11:32:32.506Z,96540.73
2018-12-01T11:35:02.283Z,96532.98
2018-12-01T11:37:32.233Z,96535.56
2018-12-01T11:40:00.722Z,96540.24
2018-12-01T11:42:31.610Z,96536.67
2018-12-01T11:45:01.110Z,96526.34
2018-12-01T11:47:31.614Z,96524.72
2018-12-01T11:50:03.686Z,96522.90
2018-12-01T11:52:33.917Z,96525.48
2018-12-01T11:55:03.955Z,96520.48
2018-12-01T11:57:33.943Z,96517.02
2018-12-01T12:00:03.936Z,96521.02
2018-12-01T12:02:39.860Z,96530.78
2018-12-01T12:05:12.279Z,96526.88
2018-12-01T12:07:53.066Z,96522.89
2018-12-01T12:10:22.872Z,96514.64
2018-12-01T12:12:52.803Z,96516.26
2018-12-01T12:15:23.847Z,96508.76
2018-12-01T12:17:56.896Z,96507.75
2018-12-01T12:20:28.415Z,96505.05
2018-12-01T12:22:56.995Z,96501.47
2018-12-01T12:25:27.179Z,96511.56
2018-12-01T12:27:58.171Z,96514.37
2018-12-01T12:30:28.566Z,96510.87
2018-12-01T12:32:57.912Z,96509.23
2018-12-01T12:35:27.098Z,96507.75
2018-12-01T12:37:58.734Z,96510.64
2018-12-01T12:40:29.083Z,96499.16
2018-12-01T12:43:00.513Z,96490.38
2018-12-01T12:45:31.071Z,96486.97
2018-12-01T12:48:01.220Z,96482.11
2018-12-01T12:50:30.147Z,96479.72
2018-12-01T12:52:59.755Z,96482.22
2018-12-01T12:55:31.288Z,96487.15
2018-12-01T12:57:59.892Z,96475.91
2018-12-01T13:00:30.041Z,96394.30
2018-12-01T13:03:02.651Z,96466.20
2018-12-01T13:05:35.201Z,96466.61
2018-12-01T13:08:04.721Z,96461.81
2018-12-01T13:10:33.665Z,96457.06
2018-12-01T13:13:02.658Z,96459.29
2018-12-01T13:15:33.368Z,96454.31
2018-12-01T13:18:08.829Z,96456.25
2018-12-01T13:20:37.987Z,96445.65
2018-12-01T13:23:07.230Z,96443.89
2018-12-01T13:25:37.616Z,96450.83
2018-12-01T13:28:12.304Z,96447.35
2018-12-01T13:30:50.241Z,96486.14
2018-12-01T13:33:21.108Z,96443.66
2018-12-01T13:35:50.029Z,96437.68
2018-12-01T13:38:19.359Z,96439.42
2018-12-01T13:40:50.011Z,96446.17
2018-12-01T13:43:18.983Z,96440.98
2018-12-01T13:45:49.048Z,96444.05
2018-12-01T13:48:18.854Z,96444.31
2018-12-01T13:50:48.042Z,96446.96
2018-12-01T13:53:18.907Z,96456.38
2018-12-01T13:55:48.020Z,96398.78
2018-12-01T13:58:18.883Z,96453.47
2018-12-01T14:00:47.761Z,96454.66
2018-12-01T14:03:16.454Z,96446.18
2018-12-01T14:05:45.239Z,96444.29
2018-12-01T14:08:14.298Z,96449.91
2018-12-01T14:10:46.886Z,96455.62
2018-12-01T14:13:17.054Z,96450.09
2018-12-01T14:15:47.390Z,96454.86
2018-12-01T14:18:17.332Z,96455.42
2018-12-01T14:20:46.542Z,96452.11
2018-12-01T14:23:17.011Z,96453.36
2018-12-01T14:25:46.715Z,96458.63
2018-12-01T14:28:16.770Z,96454.66
2018-12-01T14:33:29.970Z,96452.38
2018-12-01T14:35:59.706Z,96451.94
2018-12-01T14:38:31.993Z,96453.90
2018-12-01T14:41:01.856Z,96446.44
2018-12-01T14:43:46.659Z,96445.25
2018-12-01T14:46:16.228Z,96442.27
2018-12-01T14:48:46.082Z,96445.33
2018-12-01T14:51:16.182Z,96438.09
2018-12-01T14:53:46.915Z,96437.83
2018-12-01T14:56:17.292Z,96435.43
2018-12-01T14:58:48.916Z,96436.75
2018-12-01T15:01:18.518Z,96432.89
2018-12-01T15:03:49.558Z,96441.18
2018-12-01T15:06:20.686Z,96428.14
2018-12-01T15:08:50.191Z,96426.70
2018-12-01T15:11:22.119Z,96432.21
2018-12-01T15:13:50.903Z,96434.56
2018-12-01T15:16:20.291Z,96432.44
2018-12-01T15:18:50.242Z,96428.90
2018-12-01T15:21:19.807Z,96425.89
2018-12-01T15:23:49.158Z,96428.45
2018-12-01T15:26:19.982Z,96433.62
2018-12-01T15:28:49.245Z,96434.45
2018-12-01T15:31:18.673Z,96432.86
2018-12-01T15:33:48.752Z,96438.41
2018-12-01T15:36:18.522Z,96428.70
2018-12-01T15:38:48.021Z,96434.64
2018-12-01T15:41:18.944Z,96429.60
2018-12-01T15:43:55.892Z,96426.35
2018-12-01T15:46:25.437Z,96429.87
2018-12-01T15:48:54.139Z,96433.41
2018-12-01T15:51:23.985Z,96427.42
2018-12-01T15:53:53.804Z,96421.69
2018-12-01T15:56:22.882Z,96422.86
2018-12-01T15:58:53.320Z,96419.58
2018-12-01T16:01:25.342Z,96428.99
2018-12-01T16:03:55.109Z,96423.33
2018-12-01T16:06:25.522Z,96415.80
2018-12-01T16:08:54.786Z,96419.33
2018-12-01T16:11:26.085Z,96608.59
2018-12-01T16:13:56.605Z,96419.85
2018-12-01T16:16:27.071Z,96414.19
2018-12-01T16:18:57.451Z,96413.04
2018-12-01T16:21:26.547Z,96409.72
2018-12-01T16:23:58.648Z,96411.30
2018-12-01T16:26:28.896Z,96408.09
2018-12-01T16:28:57.950Z,96405.64
2018-12-01T16:31:28.664Z,96404.21
2018-12-01T16:33:57.811Z,96399.59
2018-12-01T16:36:26.630Z,96403.31
2018-12-01T16:38:56.202Z,96402.73
2018-12-01T16:41:28.509Z,96405.53
2018-12-01T16:43:58.109Z,96401.20
2018-12-01T16:46:27.840Z,96402.13
2018-12-01T16:48:58.209Z,96394.86
2018-12-01T16:51:29.165Z,96391.72
2018-12-01T16:53:58.628Z,96405.20
2018-12-01T16:56:28.298Z,96396.48
2018-12-01T16:58:58.185Z,96385.52
2018-12-01T17:01:27.855Z,96381.56
2018-12-01T17:03:57.016Z,96384.81
2018-12-01T17:06:26.999Z,96381.41
2018-12-01T17:08:57.490Z,96380.90
2018-12-01T17:11:28.239Z,96382.74
2018-12-01T17:13:57.002Z,96386.69
2018-12-01T17:16:25.850Z,96380.36
2018-12-01T17:18:55.272Z,96370.19
2018-12-01T17:21:24.426Z,96362.05
2018-12-01T17:23:54.259Z,96359.62
2018-12-01T17:26:23.389Z,96356.48
2018-12-01T17:28:54.675Z,96349.13
2018-12-01T17:31:25.164Z,96351.23
2018-12-01T17:33:55.121Z,96351.17
2018-12-01T17:36:26.357Z,96341.51
2018-12-01T17:38:57.103Z,96344.38
2018-12-01T17:41:29.726Z,96347.54
2018-12-01T17:44:07.375Z,96343.97
2018-12-01T17:46:36.454Z,96339.98
2018-12-01T17:49:07.478Z,96333.80
2018-12-01T17:51:36.698Z,96337.78
2018-12-01T17:54:13.722Z,96343.11
2018-12-01T17:56:42.496Z,96332.54
2018-12-01T17:59:14.256Z,96339.09
2018-12-01T18:01:44.153Z,96337.07
2018-12-01T18:04:13.333Z,96334.50
2018-12-01T18:06:42.856Z,96334.75
2018-12-01T18:09:14.400Z,96330.02
2018-12-01T18:11:43.453Z,96330.89
2018-12-01T18:14:13.967Z,96330.61
2018-12-01T18:16:45.206Z,96332.73
2018-12-01T18:19:13.695Z,96327.58
2018-12-01T18:21:45.400Z,96334.45
2018-12-01T18:24:15.253Z,96323.42
2018-12-01T18:26:44.825Z,96326.25
2018-12-01T18:29:15.073Z,96321.83
2018-12-01T18:31:46.663Z,96326.17
2018-12-01T18:34:17.071Z,96326.00
2018-12-01T18:36:48.162Z,96323.44
2018-12-01T18:39:18.695Z,96319.94
2018-12-01T18:41:48.846Z,96318.25
2018-12-01T18:44:21.300Z,96312.44
2018-12-01T18:46:50.223Z,96312.21
2018-12-01T18:49:23.907Z,96315.16
2018-12-01T18:51:55.563Z,96307.92
2018-12-01T18:54:24.603Z,96306.48
2018-12-01T18:56:54.536Z,96361.58
2018-12-01T18:59:24.306Z,96299.56
2018-12-01T19:01:53.308Z,96295.28
2018-12-01T19:04:24.908Z,96292.65
2018-12-01T19:06:55.972Z,96292.47
2018-12-01T19:09:26.387Z,96288.36
2018-12-01T19:11:56.373Z,96286.97
2018-12-01T19:14:26.550Z,96283.06
2018-12-01T19:16:56.742Z,96281.75
2018-12-01T19:19:27.578Z,96290.67
2018-12-01T19:21:56.599Z,96279.41
2018-12-01T19:24:27.479Z,96276.17
2018-12-01T19:26:57.366Z,96278.75
2018-12-01T19:29:28.780Z,96273.66
2018-12-01T19:32:00.026Z,96280.30
2018-12-01T19:34:29.993Z,96281.15
2018-12-01T19:37:00.219Z,96274.69
2018-12-01T19:39:29.403Z,96266.39
2018-12-01T19:42:00.254Z,96260.11
2018-12-01T19:44:30.723Z,96252.19
2018-12-01T19:46:59.325Z,96249.45
2018-12-01T19:49:29.483Z,96242.54
2018-12-01T19:51:58.988Z,96236.09
2018-12-01T19:54:29.633Z,96237.20
2018-12-01T19:56:59.689Z,96229.24
2018-12-01T19:59:29.313Z,96223.09
2018-12-01T20:01:58.129Z,96223.89
2018-12-01T20:04:27.676Z,96229.08
2018-12-01T20:06:57.310Z,96230.47
2018-12-01T20:09:25.819Z,96236.83
2018-12-01T20:11:56.789Z,96235.08
2018-12-01T20:14:27.937Z,96239.21
2018-12-01T20:16:58.694Z,96249.87
2018-12-01T20:19:29.254Z,96240.83
2018-12-01T20:21:58.637Z,96241.77
2018-12-01T20:24:28.770Z,96237.17
2018-12-01T20:26:59.263Z,96235.73
2018-12-01T20:29:28.539Z,96235.73
2018-12-01T20:31:58.358Z,96273.34
2018-12-01T20:34:28.601Z,96240.61
2018-12-01T20:37:01.611Z,96242.23
2018-12-01T20:39:35.740Z,96236.98
2018-12-01T20:42:05.691Z,96232.05
2018-12-01T20:44:35.762Z,96233.36
2018-12-01T20:47:05.795Z,96236.01
2018-12-01T20:49:34.326Z,96226.18
2018-12-01T20:52:03.430Z,96218.56
2018-12-01T20:54:52.484Z,96218.36
2018-12-01T20:57:25.251Z,96209.86
2018-12-01T20:59:54.713Z,96203.38
2018-12-01T21:02:23.733Z,96202.02
2018-12-01T21:04:52.360Z,96212.31
2018-12-01T21:07:21.775Z,96204.77
2018-12-01T21:09:51.218Z,96201.34
2018-12-01T21:12:19.899Z,96200.02
2018-12-01T21:14:49.157Z,96196.78
2018-12-01T21:17:18.954Z,96197.42
2018-12-01T21:19:47.719Z,96192.58
2018-12-01T21:22:20.621Z,96180.95
2018-12-01T21:24:49.806Z,96170.69
2018-12-01T21:27:18.763Z,96170.83
2018-12-01T21:29:47.350Z,96167.48
2018-12-01T21:32:17.075Z,96170.31
2018-12-01T21:34:46.838Z,96160.52
2018-12-01T21:37:15.869Z,96156.00
2018-12-01T21:39:45.607Z,96149.02
2018-12-01T21:42:14.270Z,96152.75
2018-12-01T21:44:43.199Z,96141.56
2018-12-01T21:47:12.193Z,96143.05
2018-12-01T21:49:41.521Z,96145.31
2018-12-01T21:52:11.991Z,96139.27
2018-12-01T21:54:41.377Z,96143.36
2018-12-01T21:57:11.001Z,96146.23
2018-12-01T21:59:40.201Z,96139.00
2018-12-01T22:02:10.214Z,96135.60
2018-12-01T22:04:40.723Z,96128.73
2018-12-01T22:07:09.254Z,96121.64
2018-12-01T22:09:38.145Z,96125.59
2018-12-01T22:12:08.102Z,96118.80
2018-12-01T22:14:37.141Z,96122.72
2018-12-01T22:17:08.958Z,96117.21
2018-12-01T22:19:44.530Z,96126.66
2018-12-01T22:22:13.374Z,96114.70
2018-12-01T22:24:42.176Z,96119.92
2018-12-01T22:27:12.791Z,96116.55
2018-12-01T22:29:42.524Z,96105.41
2018-12-01T22:32:13.903Z,96104.47
2018-12-01T22:34:43.334Z,96095.10
2018-12-01T22:37:13.962Z,96090.95
2018-12-01T22:39:42.521Z,96092.09
2018-12-01T22:42:12.198Z,96089.80
2018-12-01T22:44:42.906Z,96089.73
2018-12-01T22:47:13.834Z,96084.42
2018-12-01T22:49:42.874Z,96087.86
2018-12-01T22:52:12.812Z,96071.97
2018-12-01T22:54:42.123Z,96064.94
2018-12-01T22:57:12.519Z,96063.31
2018-12-01T22:59:42.092Z,96063.94
2018-12-01T23:02:13.158Z,96071.98
2018-12-01T23:04:41.700Z,96056.71
2018-12-01T23:07:11.783Z,96057.59
2018-12-01T23:09:41.490Z,96051.13
2018-12-01T23:12:11.330Z,96054.80
2018-12-01T23:14:40.918Z,96037.75
2018-12-01T23:17:09.933Z,96046.41
2018-12-01T23:19:38.551Z,96045.27
2018-12-01T23:22:08.521Z,96042.12
2018-12-01T23:24:38.211Z,96037.44
2018-12-01T23:27:08.981Z,96037.52
2018-12-01T23:29:39.922Z,96033.49
2018-12-01T23:32:09.754Z,96034.76
2018-12-01T23:34:40.302Z,96029.61
2018-12-01T23:37:10.917Z,96029.85
2018-12-01T23:39:40.973Z,96020.13
2018-12-01T23:42:10.195Z,96013.96
2018-12-01T23:44:39.635Z,96012.23
2018-12-01T23:47:10.310Z,96007.70
2018-12-01T23:49:40.132Z,96006.36
2018-12-01T23:52:09.471Z,96000.31
2018-12-01T23:54:47.563Z,95994.66
2018-12-01T23:57:16.919Z,95993.30
2018-12-01T23:59:45.460Z,95990.66
